createdAt,value
2022-12-11T00:02:40.682Z,142.48
2022-12-11T00:05:48.148Z,152.67
2022-12-11T00:08:56.529Z,156.02
2022-12-11T00:12:02.634Z,141.12
2022-12-11T00:15:12.027Z,120.58
2022-12-11T00:18:20.484Z,117.24
2022-12-11T00:21:26.767Z,118.01
2022-12-11T00:24:33.658Z,108.77
2022-12-11T00:27:40.302Z,114.53
2022-12-11T00:30:46.452Z,114.54
2022-12-11T00:33:55.564Z,108.74
2022-12-11T00:37:01.914Z,110.28
2022-12-11T00:40:10.230Z,111.09
2022-12-11T00:43:17.254Z,117.98
2022-12-11T00:46:23.746Z,110.26
2022-12-11T00:49:32.245Z,110.01
2022-12-11T00:52:39.020Z,109.80
2022-12-11T00:55:46.522Z,107.34
2022-12-11T00:58:53.045Z,107.36
2022-12-11T01:01:58.833Z,106.46
2022-12-11T01:05:09.579Z,116.54
2022-12-11T01:08:15.194Z,111.09
2022-12-11T01:11:21.626Z,115.57
2022-12-11T01:14:27.315Z,119.20
2022-12-11T01:17:33.839Z,119.72
2022-12-11T01:20:45.305Z,121.26
2022-12-11T01:23:54.052Z,120.94
2022-12-11T01:26:59.688Z,121.64
2022-12-11T01:30:08.078Z,123.29
2022-12-11T01:33:13.752Z,126.70
2022-12-11T01:36:25.157Z,127.82
2022-12-11T01:39:31.007Z,131.78
2022-12-11T01:42:38.436Z,125.45
2022-12-11T01:45:47.559Z,129.12
2022-12-11T01:48:54.143Z,133.14
2022-12-11T01:52:10.728Z,139.09
2022-12-11T01:55:18.129Z,133.49
2022-12-11T01:58:29.689Z,137.28
2022-12-11T02:01:42.948Z,130.74
2022-12-11T02:04:51.199Z,126.21
2022-12-11T02:08:06.030Z,142.46
2022-12-11T02:11:26.103Z,129.31
2022-12-11T02:14:46.286Z,124.02
2022-12-11T02:18:03.011Z,125.45
2022-12-11T02:21:23.596Z,127.66
2022-12-11T02:25:07.122Z,130.35
2022-12-11T02:28:28.354Z,128.58
2022-12-11T02:31:44.331Z,134.21
2022-12-11T02:35:05.839Z,134.10
2022-12-11T02:38:21.031Z,133.39
2022-12-11T02:41:31.838Z,148.75
2022-12-11T02:44:43.457Z,149.60
2022-12-11T02:47:53.415Z,142.24
2022-12-11T02:51:04.104Z,143.03
2022-12-11T02:54:16.672Z,150.03
2022-12-11T02:57:34.358Z,146.66
2022-12-11T03:00:42.870Z,137.17
2022-12-11T03:03:49.333Z,136.04
2022-12-11T03:07:01.635Z,138.01
2022-12-11T03:10:12.286Z,145.35
2022-12-11T03:13:25.612Z,135.61
2022-12-11T03:16:41.312Z,145.50
2022-12-11T03:19:58.604Z,145.21
2022-12-11T03:23:21.917Z,139.83
2022-12-11T03:26:29.922Z,144.81
2022-12-11T03:29:45.525Z,188.05
2022-12-11T03:33:01.822Z,150.05
2022-12-11T03:36:14.613Z,158.19
2022-12-11T03:39:30.696Z,156.23
2022-12-11T03:42:39.908Z,145.00
2022-12-11T03:45:49.315Z,142.40
2022-12-11T03:49:06.744Z,144.93
2022-12-11T03:52:17.437Z,144.49
2022-12-11T03:55:27.841Z,145.06
2022-12-11T03:58:33.541Z,138.92
2022-12-11T04:01:40.051Z,135.65
2022-12-11T04:04:48.193Z,141.39
2022-12-11T04:07:54.468Z,137.76
2022-12-11T04:11:12.468Z,142.84
2022-12-11T04:14:31.155Z,146.14
2022-12-11T04:17:52.034Z,152.17
2022-12-11T04:21:13.088Z,155.02
2022-12-11T04:24:18.608Z,145.40
2022-12-11T04:27:49.530Z,138.85
2022-12-11T04:30:55.094Z,139.06
2022-12-11T04:34:01.737Z,157.80
2022-12-11T04:37:09.849Z,139.43
2022-12-11T04:40:20.805Z,147.00
2022-12-11T04:43:26.244Z,147.40
2022-12-11T04:46:33.404Z,144.49
2022-12-11T04:49:39.064Z,145.62
2022-12-11T04:52:47.962Z,143.56
2022-12-11T04:55:53.518Z,142.86
2022-12-11T04:58:59.814Z,135.42
2022-12-11T05:02:05.411Z,136.58
2022-12-11T05:05:14.643Z,141.11
2022-12-11T05:08:24.365Z,132.94
2022-12-11T05:11:30.829Z,137.93
2022-12-11T05:14:36.256Z,133.67
2022-12-11T05:17:42.714Z,135.44
2022-12-11T05:20:48.858Z,136.03
2022-12-11T05:23:57.805Z,145.76
2022-12-11T05:27:03.318Z,153.75
2022-12-11T05:30:12.203Z,144.05
2022-12-11T05:33:18.095Z,145.70
2022-12-11T05:36:28.264Z,153.90
2022-12-11T05:39:36.457Z,146.18
2022-12-11T05:42:42.761Z,148.30
2022-12-11T05:45:48.247Z,145.71
2022-12-11T05:48:58.619Z,142.26
2022-12-11T05:52:04.087Z,137.46
2022-12-11T05:55:13.768Z,138.20
2022-12-11T05:58:19.331Z,139.55
2022-12-11T06:01:29.512Z,136.98
2022-12-11T06:04:35.003Z,140.09
2022-12-11T06:07:41.284Z,124.30
2022-12-11T06:10:53.033Z,131.47
2022-12-11T06:14:00.047Z,132.22
2022-12-11T06:17:05.591Z,127.00
2022-12-11T06:20:13.066Z,129.46
2022-12-11T06:23:18.703Z,131.51
2022-12-11T06:26:29.515Z,130.07
2022-12-11T06:29:35.109Z,132.11
2022-12-11T06:32:41.457Z,139.64
2022-12-11T06:35:46.958Z,139.76
2022-12-11T06:38:53.403Z,144.28
2022-12-11T06:42:01.375Z,155.93
2022-12-11T06:45:09.578Z,165.30
2022-12-11T06:48:15.413Z,162.95
2022-12-11T06:51:25.517Z,187.34
2022-12-11T06:54:31.307Z,166.12
2022-12-11T06:57:40.347Z,172.78
2022-12-11T07:00:46.228Z,175.34
2022-12-11T07:03:55.468Z,172.33
2022-12-11T07:07:01.065Z,178.47
2022-12-11T07:10:08.858Z,176.13
2022-12-11T07:13:17.011Z,160.98
2022-12-11T07:16:23.365Z,156.28
2022-12-11T07:19:29.753Z,180.13
2022-12-11T07:22:37.596Z,172.36
2022-12-11T07:25:46.461Z,587.49
2022-12-11T07:28:56.208Z,548.19
2022-12-11T07:32:01.795Z,211.16
2022-12-11T07:35:09.651Z,304.33
2022-12-11T07:38:15.620Z,480.82
2022-12-11T07:41:22.152Z,567.89
2022-12-11T07:44:34.630Z,626.09
2022-12-11T07:47:42.972Z,291.08
2022-12-11T07:50:48.760Z,220.24
2022-12-11T07:53:57.494Z,275.40
2022-12-11T07:57:03.232Z,236.74
2022-12-11T08:00:14.491Z,258.40
2022-12-11T08:03:20.039Z,292.00
2022-12-11T08:06:31.318Z,208.99
2022-12-11T08:09:37.034Z,177.78
2022-12-11T08:12:43.330Z,168.54
2022-12-11T08:15:51.470Z,155.42
2022-12-11T08:18:58.351Z,186.88
2022-12-11T08:22:03.798Z,286.88
2022-12-11T08:25:11.639Z,157.87
2022-12-11T08:28:17.310Z,170.16
2022-12-11T08:31:26.986Z,432.05
2022-12-11T08:34:32.666Z,465.32
2022-12-11T08:37:39.232Z,380.07
2022-12-11T08:40:44.961Z,198.93
2022-12-11T08:43:55.045Z,371.57
2022-12-11T08:47:05.576Z,374.45
2022-12-11T08:50:13.837Z,283.17
2022-12-11T08:53:19.388Z,253.06
2022-12-11T08:56:26.570Z,186.75
2022-12-11T08:59:31.995Z,156.02
2022-12-11T09:02:40.957Z,152.54
2022-12-11T09:05:46.568Z,149.32
2022-12-11T09:08:56.279Z,196.92
2022-12-11T09:12:02.152Z,196.76
2022-12-11T09:15:10.281Z,181.11
2022-12-11T09:18:18.735Z,157.35
2022-12-11T09:21:29.838Z,182.16
2022-12-11T09:24:35.548Z,177.72
2022-12-11T09:27:41.801Z,194.47
2022-12-11T09:30:47.278Z,192.03
2022-12-11T09:34:00.278Z,171.97
2022-12-11T09:37:05.700Z,161.92
2022-12-11T09:40:15.240Z,178.56
2022-12-11T09:43:40.961Z,216.33
2022-12-11T09:46:51.576Z,235.97
2022-12-11T09:50:18.464Z,246.52
2022-12-11T09:53:35.794Z,219.79
2022-12-11T09:56:52.964Z,217.54
2022-12-11T10:00:31.862Z,201.78
2022-12-11T10:04:13.430Z,191.50
2022-12-11T10:07:40.992Z,178.40
2022-12-11T10:11:00.016Z,211.75
2022-12-11T10:14:23.332Z,198.91
2022-12-11T10:17:35.278Z,199.18
2022-12-11T10:20:43.034Z,212.76
2022-12-11T10:24:01.060Z,203.46
2022-12-11T10:27:21.447Z,201.10
2022-12-11T10:30:34.716Z,195.84
2022-12-11T10:33:59.149Z,171.02
2022-12-11T10:37:06.086Z,165.04
2022-12-11T10:40:16.761Z,167.00
2022-12-11T10:43:22.766Z,145.12
2022-12-11T10:46:33.289Z,140.00
2022-12-11T10:49:41.889Z,141.34
2022-12-11T10:52:48.720Z,138.82
2022-12-11T10:55:58.197Z,135.71
2022-12-11T10:59:07.264Z,140.00
2022-12-11T11:02:28.967Z,147.32
2022-12-11T11:05:38.951Z,155.69
2022-12-11T11:08:47.841Z,152.85
2022-12-11T11:11:56.678Z,157.32
2022-12-11T11:15:03.768Z,156.17
2022-12-11T11:18:27.176Z,152.74
2022-12-11T11:21:33.095Z,166.83
2022-12-11T11:24:45.530Z,485.09
2022-12-11T11:28:00.998Z,937.00
2022-12-11T11:31:12.313Z,950.11
2022-12-11T11:34:26.303Z,660.65
2022-12-11T11:37:37.169Z,279.59
2022-12-11T11:40:53.957Z,236.81
2022-12-11T11:44:10.171Z,245.69
2022-12-11T11:47:25.393Z,224.94
2022-12-11T11:50:39.001Z,231.20
2022-12-11T11:53:51.189Z,245.41
2022-12-11T11:57:02.039Z,256.18
2022-12-11T12:00:22.776Z,257.79
2022-12-11T12:03:31.803Z,264.60
2022-12-11T12:07:13.563Z,237.14
2022-12-11T12:10:32.260Z,243.74
2022-12-11T12:13:57.191Z,231.57
2022-12-11T12:17:26.489Z,256.80
2022-12-11T12:20:51.063Z,237.71
2022-12-11T12:24:17.912Z,337.39
2022-12-11T12:27:52.219Z,369.59
2022-12-11T12:31:24.846Z,338.52
2022-12-11T12:34:58.446Z,233.11
2022-12-11T12:38:17.794Z,327.19
2022-12-11T12:41:38.104Z,495.66
2022-12-11T12:45:01.007Z,344.15
2022-12-11T12:48:06.631Z,381.04
2022-12-11T12:51:19.160Z,394.27
2022-12-11T12:54:29.109Z,656.80
2022-12-11T12:57:37.974Z,484.73
2022-12-11T13:00:46.904Z,440.55
2022-12-11T13:04:01.927Z,557.37
2022-12-11T13:07:27.308Z,869.92
2022-12-11T13:10:38.086Z,752.07
2022-12-11T13:13:54.506Z,734.67
2022-12-11T13:17:31.971Z,504.48
2022-12-11T13:20:51.201Z,404.76
2022-12-11T13:24:26.885Z,629.24
2022-12-11T13:27:43.685Z,404.92
2022-12-11T13:31:26.211Z,539.16
2022-12-11T13:34:39.357Z,414.93
2022-12-11T13:37:49.893Z,470.69
2022-12-11T13:41:01.091Z,553.15
2022-12-11T13:44:11.193Z,525.38
2022-12-11T13:47:22.699Z,363.35
2022-12-11T13:50:34.780Z,327.02
2022-12-11T13:53:40.241Z,283.18
2022-12-11T13:57:02.707Z,450.83
2022-12-11T14:00:23.510Z,428.30
2022-12-11T14:03:30.420Z,261.81
2022-12-11T14:06:42.200Z,264.64
2022-12-11T14:09:49.549Z,285.96
2022-12-11T14:13:06.912Z,318.44
2022-12-11T14:16:26.273Z,471.36
2022-12-11T14:19:32.230Z,653.42
2022-12-11T14:22:38.525Z,621.92
2022-12-11T14:25:44.013Z,540.63
2022-12-11T14:28:54.285Z,402.98
2022-12-11T14:32:06.342Z,332.49
2022-12-11T14:35:34.263Z,351.59
2022-12-11T14:38:52.217Z,356.84
2022-12-11T14:42:07.648Z,319.01
2022-12-11T14:45:25.681Z,395.43
2022-12-11T14:48:40.756Z,317.95
2022-12-11T14:51:48.005Z,589.72
2022-12-11T14:55:03.391Z,399.14
2022-12-11T14:58:21.809Z,320.07
2022-12-11T15:01:34.459Z,461.25
2022-12-11T15:04:42.516Z,301.31
2022-12-11T15:08:03.105Z,308.66
2022-12-11T15:11:14.266Z,311.91
2022-12-11T15:14:25.581Z,307.52
2022-12-11T15:17:37.350Z,345.53
2022-12-11T15:20:44.423Z,319.98
2022-12-11T15:23:59.249Z,358.60
2022-12-11T15:27:06.095Z,302.45
2022-12-11T15:30:32.881Z,321.13
2022-12-11T15:33:51.325Z,467.13
2022-12-11T15:36:59.230Z,519.35
2022-12-11T15:40:08.330Z,371.84
2022-12-11T15:43:16.208Z,340.83
2022-12-11T15:46:23.126Z,321.55
2022-12-11T15:49:32.624Z,264.64
2022-12-11T15:52:39.118Z,276.92
2022-12-11T15:55:44.853Z,254.88
2022-12-11T15:58:53.336Z,228.90
2022-12-11T16:01:58.920Z,276.62
2022-12-11T16:05:08.854Z,306.09
2022-12-11T16:08:18.749Z,327.39
2022-12-11T16:11:25.077Z,402.47
2022-12-11T16:14:30.545Z,393.69
2022-12-11T16:17:39.115Z,486.69
2022-12-11T16:20:49.085Z,508.58
2022-12-11T16:23:55.381Z,537.38
2022-12-11T16:27:01.562Z,403.10
2022-12-11T16:30:10.912Z,433.70
2022-12-11T16:33:19.228Z,366.90
2022-12-11T16:36:28.323Z,354.95
2022-12-11T16:39:33.979Z,317.79
2022-12-11T16:42:41.543Z,355.96
2022-12-11T16:45:47.066Z,551.71
2022-12-11T16:48:53.764Z,597.13
2022-12-11T16:52:01.788Z,463.88
2022-12-11T16:55:10.061Z,520.52
2022-12-11T16:58:20.160Z,427.71
2022-12-11T17:01:26.828Z,535.50
2022-12-11T17:04:32.778Z,449.95
2022-12-11T17:07:41.883Z,540.04
2022-12-11T17:10:47.469Z,379.65
2022-12-11T17:13:58.257Z,439.86
2022-12-11T17:17:04.049Z,444.75
2022-12-11T17:20:13.140Z,405.82
2022-12-11T17:23:22.314Z,406.60
2022-12-11T17:26:28.899Z,396.50
2022-12-11T17:29:35.094Z,360.37
2022-12-11T17:32:41.541Z,301.37
2022-12-11T17:35:47.318Z,298.95
2022-12-11T17:38:57.157Z,308.50
2022-12-11T17:42:03.275Z,341.38
2022-12-11T17:45:11.920Z,322.19
2022-12-11T17:48:19.342Z,348.87
2022-12-11T17:51:29.396Z,366.03
2022-12-11T17:54:39.361Z,410.84
2022-12-11T17:57:45.758Z,399.37
2022-12-11T18:00:57.161Z,362.43
2022-12-11T18:04:04.441Z,819.98
2022-12-11T18:07:10.142Z,1589.17
2022-12-11T18:10:20.668Z,487.55
2022-12-11T18:13:27.699Z,1885.57
2022-12-11T18:16:38.151Z,474.91
2022-12-11T18:19:46.221Z,441.17
2022-12-11T18:22:53.875Z,443.00
2022-12-11T18:26:02.296Z,477.51
2022-12-11T18:29:09.947Z,715.50
2022-12-11T18:32:15.763Z,775.87
2022-12-11T18:35:23.621Z,736.41
2022-12-11T18:38:29.322Z,569.27
2022-12-11T18:41:38.839Z,467.78
2022-12-11T18:44:45.600Z,467.05
2022-12-11T18:47:55.921Z,506.94
2022-12-11T18:51:01.936Z,576.76
2022-12-11T18:54:09.820Z,422.40
2022-12-11T18:57:18.102Z,478.02
2022-12-11T19:00:25.247Z,418.98
2022-12-11T19:03:30.981Z,461.86
2022-12-11T19:06:38.336Z,414.47
2022-12-11T19:09:48.126Z,450.86
2022-12-11T19:12:57.535Z,544.43
2022-12-11T19:16:23.086Z,400.52
2022-12-11T19:19:31.442Z,352.89
2022-12-11T19:22:37.700Z,346.31
2022-12-11T19:25:46.908Z,349.68
2022-12-11T19:28:57.051Z,349.45
2022-12-11T19:32:05.809Z,390.10
2022-12-11T19:35:12.104Z,360.43
2022-12-11T19:38:18.726Z,402.76
2022-12-11T19:41:28.063Z,430.03
2022-12-11T19:44:37.021Z,434.72
2022-12-11T19:47:42.568Z,435.17
2022-12-11T19:50:50.183Z,436.22
2022-12-11T19:53:56.000Z,404.96
2022-12-11T19:57:02.441Z,392.47
2022-12-11T20:00:14.615Z,444.10
2022-12-11T20:03:22.208Z,481.55
2022-12-11T20:06:29.623Z,451.34
2022-12-11T20:09:40.562Z,403.74
2022-12-11T20:12:46.606Z,409.32
2022-12-11T20:15:55.676Z,308.15
2022-12-11T20:19:01.331Z,371.47
2022-12-11T20:22:07.753Z,309.97
2022-12-11T20:25:13.706Z,310.61
2022-12-11T20:28:20.208Z,291.82
2022-12-11T20:31:29.852Z,296.26
2022-12-11T20:34:36.351Z,261.14
2022-12-11T20:37:42.915Z,253.00
2022-12-11T20:40:49.415Z,256.15
2022-12-11T20:43:56.240Z,213.26
2022-12-11T20:47:06.863Z,223.73
2022-12-11T20:50:13.053Z,250.84
2022-12-11T20:53:19.385Z,222.07
2022-12-11T20:56:25.873Z,181.77
2022-12-11T20:59:32.618Z,194.82
2022-12-11T21:02:41.021Z,205.77
2022-12-11T21:05:50.270Z,224.11
2022-12-11T21:08:58.973Z,228.75
2022-12-11T21:12:05.921Z,240.01
2022-12-11T21:15:14.274Z,239.25
2022-12-11T21:18:23.536Z,251.85
2022-12-11T21:21:29.241Z,228.34
2022-12-11T21:24:36.183Z,226.57
2022-12-11T21:27:42.033Z,228.28
2022-12-11T21:30:51.744Z,239.25
2022-12-11T21:34:00.257Z,211.48
2022-12-11T21:37:06.700Z,212.52
2022-12-11T21:40:14.488Z,210.79
2022-12-11T21:43:20.945Z,222.52
2022-12-11T21:46:28.907Z,221.07
2022-12-11T21:49:37.915Z,227.83
2022-12-11T21:52:43.729Z,201.43
2022-12-11T21:55:50.026Z,202.34
2022-12-11T21:59:01.538Z,200.57
2022-12-11T22:02:08.070Z,201.68
2022-12-11T22:05:16.341Z,204.98
2022-12-11T22:08:22.800Z,201.66
2022-12-11T22:11:34.338Z,182.06
2022-12-11T22:14:40.692Z,180.24
2022-12-11T22:17:47.599Z,176.17
2022-12-11T22:20:57.726Z,167.96
2022-12-11T22:24:03.403Z,168.85
2022-12-11T22:27:10.320Z,171.87
2022-12-11T22:30:17.175Z,169.07
2022-12-11T22:33:23.587Z,171.30
2022-12-11T22:36:31.828Z,178.01
2022-12-11T22:39:38.389Z,185.65
2022-12-11T22:42:44.262Z,195.80
2022-12-11T22:45:50.722Z,220.76
2022-12-11T22:48:57.307Z,226.22
2022-12-11T22:52:06.591Z,233.56
2022-12-11T22:55:12.743Z,239.34
2022-12-11T22:58:21.921Z,246.02
2022-12-11T23:01:30.401Z,241.04
2022-12-11T23:04:36.835Z,252.85
2022-12-11T23:07:45.090Z,244.73
2022-12-11T23:10:51.546Z,242.49
2022-12-11T23:13:58.642Z,234.53
2022-12-11T23:17:05.583Z,230.14
2022-12-11T23:20:13.259Z,228.56
2022-12-11T23:23:22.055Z,223.27
2022-12-11T23:26:29.319Z,227.36
2022-12-11T23:29:36.024Z,237.24
2022-12-11T23:32:41.585Z,246.21
2022-12-11T23:35:48.183Z,241.89
2022-12-11T23:38:57.834Z,220.29
2022-12-11T23:42:04.257Z,234.53
2022-12-11T23:45:11.899Z,234.11
2022-12-11T23:48:18.736Z,241.22
2022-12-11T23:51:26.639Z,243.93
2022-12-11T23:54:36.317Z,247.30
2022-12-11T23:57:44.363Z,231.55
